sensor_id;sensor_type;location;lat;lon;timestamp;pressure;altitude;pressure_sealevel;temperature;humidity
16094;BME280;8151;47.824;12.092;2023-04-05T00:01:39;96732.69;;;0.93;53.76
16094;BME280;8151;47.824;12.092;2023-04-05T00:04:08;96726.13;;;1.01;53.44
16094;BME280;8151;47.824;12.092;2023-04-05T00:06:38;96726.19;;;1.13;52.91
16094;BME280;8151;47.824;12.092;2023-04-05T00:09:09;96714.94;;;1.26;53.21
16094;BME280;8151;47.824;12.092;2023-04-05T00:11:39;96717.34;;;1.29;52.65
16094;BME280;8151;47.824;12.092;2023-04-05T00:14:07;96709.63;;;1.27;52.89
16094;BME280;8151;47.824;12.092;2023-04-05T00:16:35;96723.69;;;1.25;52.98
16094;BME280;8151;47.824;12.092;2023-04-05T00:19:04;96713.47;;;1.22;52.75
16094;BME280;8151;47.824;12.092;2023-04-05T00:21:32;96710.03;;;1.21;53.09
16094;BME280;8151;47.824;12.092;2023-04-05T00:24:02;96707.44;;;1.21;53.30
16094;BME280;8151;47.824;12.092;2023-04-05T00:26:31;96709.72;;;1.13;53.13
16094;BME280;8151;47.824;12.092;2023-04-05T00:28:59;96710.63;;;1.12;53.25
16094;BME280;8151;47.824;12.092;2023-04-05T00:31:28;96698.34;;;1.14;53.11
16094;BME280;8151;47.824;12.092;2023-04-05T00:33:57;96708.03;;;1.12;53.23
16094;BME280;8151;47.824;12.092;2023-04-05T00:36:25;96710.84;;;1.09;53.77
16094;BME280;8151;47.824;12.092;2023-04-05T00:38:53;96707.28;;;1.10;53.43
16094;BME280;8151;47.824;12.092;2023-04-05T00:41:23;96702.00;;;1.11;53.47
16094;BME280;8151;47.824;12.092;2023-04-05T00:43:52;96698.66;;;1.09;53.50
16094;BME280;8151;47.824;12.092;2023-04-05T00:46:21;96693.72;;;1.05;53.44
16094;BME280;8151;47.824;12.092;2023-04-05T00:48:50;96692.81;;;1.06;53.83
16094;BME280;8151;47.824;12.092;2023-04-05T00:51:20;96691.75;;;1.08;53.63
16094;BME280;8151;47.824;12.092;2023-04-05T00:53:50;96691.25;;;1.03;53.71
16094;BME280;8151;47.824;12.092;2023-04-05T00:56:20;96696.88;;;0.97;53.78
16094;BME280;8151;47.824;12.092;2023-04-05T00:58:51;96693.00;;;1.03;53.71
16094;BME280;8151;47.824;12.092;2023-04-05T01:01:21;96681.47;;;1.07;53.76
16094;BME280;8151;47.824;12.092;2023-04-05T01:03:56;96688.13;;;1.11;53.70
16094;BME280;8151;47.824;12.092;2023-04-05T01:06:35;96684.56;;;1.12;53.96
16094;BME280;8151;47.824;12.092;2023-04-05T01:09:13;96691.13;;;1.05;53.63
16094;BME280;8151;47.824;12.092;2023-04-05T01:11:46;96683.47;;;0.89;53.87
16094;BME280;8151;47.824;12.092;2023-04-05T01:14:16;96680.22;;;0.72;54.12
16094;BME280;8151;47.824;12.092;2023-04-05T01:16:45;96682.78;;;0.59;54.55
16094;BME280;8151;47.824;12.092;2023-04-05T01:19:16;96690.06;;;0.54;54.79
16094;BME280;8151;47.824;12.092;2023-04-05T01:22:18;96681.47;;;0.52;55.27
16094;BME280;8151;47.824;12.092;2023-04-05T01:25:16;96678.28;;;0.62;54.79
16094;BME280;8151;47.824;12.092;2023-04-05T01:28:11;96670.56;;;0.60;54.63
16094;BME280;8151;47.824;12.092;2023-04-05T01:30:43;96670.56;;;0.60;54.64
16094;BME280;8151;47.824;12.092;2023-04-05T01:33:20;96669.47;;;0.64;54.27
16094;BME280;8151;47.824;12.092;2023-04-05T01:35:57;96671.53;;;0.59;54.38
16094;BME280;8151;47.824;12.092;2023-04-05T01:38:27;96660.56;;;0.54;54.57
16094;BME280;8151;47.824;12.092;2023-04-05T01:40:57;96668.78;;;0.48;54.34
16094;BME280;8151;47.824;12.092;2023-04-05T01:43:25;96668.44;;;0.39;54.51
16094;BME280;8151;47.824;12.092;2023-04-05T01:45:56;96659.59;;;0.42;54.64
16094;BME280;8151;47.824;12.092;2023-04-05T01:48:24;96660.41;;;0.43;54.87
16094;BME280;8151;47.824;12.092;2023-04-05T01:50:52;96657.44;;;0.49;54.86
16094;BME280;8151;47.824;12.092;2023-04-05T01:53:23;96649.41;;;0.52;54.98
16094;BME280;8151;47.824;12.092;2023-04-05T01:55:51;96646.31;;;0.59;54.68
16094;BME280;8151;47.824;12.092;2023-04-05T01:58:20;96652.47;;;0.58;54.52
16094;BME280;8151;47.824;12.092;2023-04-05T02:00:53;96656.59;;;0.48;54.91
16094;BME280;8151;47.824;12.092;2023-04-05T02:03:24;96651.25;;;0.37;54.97
16094;BME280;8151;47.824;12.092;2023-04-05T02:05:53;96651.03;;;0.40;55.39
16094;BME280;8151;47.824;12.092;2023-04-05T02:08:23;96647.94;;;0.48;54.86
16094;BME280;8151;47.824;12.092;2023-04-05T02:10:51;96648.19;;;0.57;55.02
16094;BME280;8151;47.824;12.092;2023-04-05T02:13:20;96645.19;;;0.64;54.48
16094;BME280;8151;47.824;12.092;2023-04-05T02:15:49;96639.25;;;0.62;54.69
16094;BME280;8151;47.824;12.092;2023-04-05T02:18:18;96637.78;;;0.57;54.85
16094;BME280;8151;47.824;12.092;2023-04-05T02:20:53;96632.03;;;0.52;55.01
16094;BME280;8151;47.824;12.092;2023-04-05T02:23:22;96631.50;;;0.47;54.79
16094;BME280;8151;47.824;12.092;2023-04-05T02:25:51;96624.75;;;0.45;55.12
16094;BME280;8151;47.824;12.092;2023-04-05T02:28:19;96621.50;;;0.41;55.18
16094;BME280;8151;47.824;12.092;2023-04-05T02:30:48;96623.44;;;0.37;55.45
16094;BME280;8151;47.824;12.092;2023-04-05T02:33:17;96619.91;;;0.38;55.18
16094;BME280;8151;47.824;12.092;2023-04-05T02:35:47;96619.25;;;0.35;55.27
16094;BME280;8151;47.824;12.092;2023-04-05T02:38:17;96622.00;;;0.33;55.53
16094;BME280;8151;47.824;12.092;2023-04-05T02:40:46;96616.31;;;0.27;55.74
16094;BME280;8151;47.824;12.092;2023-04-05T02:43:15;96615.50;;;0.26;55.44
16094;BME280;8151;47.824;12.092;2023-04-05T02:45:43;96600.81;;;0.25;55.61
16094;BME280;8151;47.824;12.092;2023-04-05T02:48:13;96601.09;;;0.21;55.73
16094;BME280;8151;47.824;12.092;2023-04-05T02:50:45;96605.41;;;0.22;55.79
16094;BME280;8151;47.824;12.092;2023-04-05T02:53:14;96617.53;;;0.21;55.47
16094;BME280;8151;47.824;12.092;2023-04-05T02:55:50;96611.50;;;0.21;55.89
16094;BME280;8151;47.824;12.092;2023-04-05T02:58:19;96610.44;;;0.10;55.83
16094;BME280;8151;47.824;12.092;2023-04-05T03:00:48;96611.03;;;0.01;56.16
16094;BME280;8151;47.824;12.092;2023-04-05T03:03:17;96606.75;;;0.00;56.14
16094;BME280;8151;47.824;12.092;2023-04-05T03:05:46;96605.81;;;0.01;56.02
16094;BME280;8151;47.824;12.092;2023-04-05T03:08:15;96599.72;;;-0.12;56.16
16094;BME280;8151;47.824;12.092;2023-04-05T03:10:53;96598.41;;;-0.20;56.69
16094;BME280;8151;47.824;12.092;2023-04-05T03:13:25;96594.81;;;-0.17;56.44
16094;BME280;8151;47.824;12.092;2023-04-05T03:15:53;96596.69;;;-0.19;56.44
16094;BME280;8151;47.824;12.092;2023-04-05T03:18:23;96599.19;;;-0.17;56.34
16094;BME280;8151;47.824;12.092;2023-04-05T03:20:53;96590.13;;;-0.12;56.32
16094;BME280;8151;47.824;12.092;2023-04-05T03:23:25;96597.47;;;-0.04;55.89
16094;BME280;8151;47.824;12.092;2023-04-05T03:25:58;96592.25;;;-0.04;55.99
16094;BME280;8151;47.824;12.092;2023-04-05T03:28:28;96601.00;;;-0.05;55.86
16094;BME280;8151;47.824;12.092;2023-04-05T03:30:59;96606.00;;;-0.02;55.97
16094;BME280;8151;47.824;12.092;2023-04-05T03:33:27;96609.53;;;-0.03;55.72
16094;BME280;8151;47.824;12.092;2023-04-05T03:35:56;96601.94;;;-0.06;56.12
16094;BME280;8151;47.824;12.092;2023-04-05T03:38:24;96601.84;;;-0.05;56.13
16094;BME280;8151;47.824;12.092;2023-04-05T03:40:54;96600.69;;;-0.01;55.95
16094;BME280;8151;47.824;12.092;2023-04-05T03:43:25;96602.38;;;0.01;56.03
16094;BME280;8151;47.824;12.092;2023-04-05T03:45:56;96597.28;;;-0.01;56.11
16094;BME280;8151;47.824;12.092;2023-04-05T03:48:24;96593.63;;;0.02;56.20
16094;BME280;8151;47.824;12.092;2023-04-05T03:50:53;96599.69;;;0.02;56.22
16094;BME280;8151;47.824;12.092;2023-04-05T03:53:22;96601.25;;;0.05;55.84
16094;BME280;8151;47.824;12.092;2023-04-05T03:55:52;96593.22;;;-0.05;56.21
16094;BME280;8151;47.824;12.092;2023-04-05T03:58:21;96594.81;;;-0.17;56.48
16094;BME280;8151;47.824;12.092;2023-04-05T04:00:51;96599.06;;;-0.16;56.35
16094;BME280;8151;47.824;12.092;2023-04-05T04:03:22;96594.91;;;-0.18;56.40
16094;BME280;8151;47.824;12.092;2023-04-05T04:05:52;96593.34;;;-0.21;56.42
16094;BME280;8151;47.824;12.092;2023-04-05T04:08:20;96594.34;;;-0.24;56.44
16094;BME280;8151;47.824;12.092;2023-04-05T04:10:49;96593.53;;;-0.24;56.53
16094;BME280;8151;47.824;12.092;2023-04-05T04:13:17;96591.75;;;-0.24;56.53
16094;BME280;8151;47.824;12.092;2023-04-05T04:15:46;96597.59;;;-0.20;56.43
16094;BME280;8151;47.824;12.092;2023-04-05T04:18:15;96595.56;;;-0.15;55.97
16094;BME280;8151;47.824;12.092;2023-04-05T04:20:44;96594.41;;;-0.11;56.04
16094;BME280;8151;47.824;12.092;2023-04-05T04:23:14;96603.34;;;-0.15;56.39
16094;BME280;8151;47.824;12.092;2023-04-05T04:25:42;96593.91;;;-0.30;56.50
16094;BME280;8151;47.824;12.092;2023-04-05T04:28:12;96599.03;;;-0.43;56.89
16094;BME280;8151;47.824;12.092;2023-04-05T04:30:45;96596.63;;;-0.46;56.78
16094;BME280;8151;47.824;12.092;2023-04-05T04:33:16;96598.19;;;-0.44;56.81
16094;BME280;8151;47.824;12.092;2023-04-05T04:35:46;96602.00;;;-0.49;56.90
16094;BME280;8151;47.824;12.092;2023-04-05T04:38:15;96605.91;;;-0.56;56.92
16094;BME280;8151;47.824;12.092;2023-04-05T04:40:45;96601.75;;;-0.73;57.16
16094;BME280;8151;47.824;12.092;2023-04-05T04:43:16;96598.88;;;-0.83;57.47
16094;BME280;8151;47.824;12.092;2023-04-05T04:45:45;96606.38;;;-0.78;57.32
16094;BME280;8151;47.824;12.092;2023-04-05T04:48:19;96594.28;;;-0.80;57.39
16094;BME280;8151;47.824;12.092;2023-04-05T04:50:48;96599.88;;;-0.86;57.37
16094;BME280;8151;47.824;12.092;2023-04-05T04:53:16;96598.75;;;-0.82;57.43
16094;BME280;8151;47.824;12.092;2023-04-05T04:55:47;96594.50;;;-0.83;57.39
16094;BME280;8151;47.824;12.092;2023-04-05T04:58:16;96598.94;;;-0.85;57.47
16094;BME280;8151;47.824;12.092;2023-04-05T05:00:45;96600.34;;;-0.79;57.34
16094;BME280;8151;47.824;12.092;2023-04-05T05:03:14;96601.47;;;-0.69;57.34
16094;BME280;8151;47.824;12.092;2023-04-05T05:05:44;96603.03;;;-0.66;57.05
16094;BME280;8151;47.824;12.092;2023-04-05T05:08:13;96602.09;;;-0.80;57.44
16094;BME280;8151;47.824;12.092;2023-04-05T05:10:44;96608.47;;;-1.00;57.85
16094;BME280;8151;47.824;12.092;2023-04-05T05:13:12;96602.25;;;-1.11;58.03
16094;BME280;8151;47.824;12.092;2023-04-05T05:15:41;96604.94;;;-1.27;58.31
16094;BME280;8151;47.824;12.092;2023-04-05T05:18:09;96610.84;;;-1.40;58.57
16094;BME280;8151;47.824;12.092;2023-04-05T05:20:50;96610.06;;;-1.42;58.51
16094;BME280;8151;47.824;12.092;2023-04-05T05:23:19;96613.72;;;-1.30;58.39
16094;BME280;8151;47.824;12.092;2023-04-05T05:25:50;96608.41;;;-1.12;58.18
16094;BME280;8151;47.824;12.092;2023-04-05T05:28:25;96611.91;;;-0.99;57.70
16094;BME280;8151;47.824;12.092;2023-04-05T05:30:55;96609.75;;;-1.07;57.90
16094;BME280;8151;47.824;12.092;2023-04-05T05:33:24;96617.97;;;-0.98;57.78
16094;BME280;8151;47.824;12.092;2023-04-05T05:35:54;96616.09;;;-0.82;57.75
16094;BME280;8151;47.824;12.092;2023-04-05T05:38:23;96618.06;;;-0.71;57.43
16094;BME280;8151;47.824;12.092;2023-04-05T05:40:54;96617.03;;;-0.69;57.64
16094;BME280;8151;47.824;12.092;2023-04-05T05:43:23;96620.88;;;-0.60;57.25
16094;BME280;8151;47.824;12.092;2023-04-05T05:45:54;96624.94;;;-0.56;57.53
16094;BME280;8151;47.824;12.092;2023-04-05T05:48:23;96624.47;;;-0.48;57.46
16094;BME280;8151;47.824;12.092;2023-04-05T05:50:54;96622.25;;;-0.40;57.18
16094;BME280;8151;47.824;12.092;2023-04-05T05:53:22;96623.28;;;-0.43;57.36
16094;BME280;8151;47.824;12.092;2023-04-05T05:55:51;96623.34;;;-0.30;57.32
16094;BME280;8151;47.824;12.092;2023-04-05T05:58:19;96626.94;;;-0.18;57.43
16094;BME280;8151;47.824;12.092;2023-04-05T06:00:48;96628.66;;;-0.04;57.04
16094;BME280;8151;47.824;12.092;2023-04-05T06:03:23;96628.06;;;-0.08;57.58
16094;BME280;8151;47.824;12.092;2023-04-05T06:05:55;96628.34;;;-0.27;57.58
16094;BME280;8151;47.824;12.092;2023-04-05T06:08:25;96626.66;;;-0.28;58.05
16094;BME280;8151;47.824;12.092;2023-04-05T06:10:54;96625.94;;;-0.15;58.06
16094;BME280;8151;47.824;12.092;2023-04-05T06:13:23;96620.59;;;0.01;57.86
16094;BME280;8151;47.824;12.092;2023-04-05T06:15:53;96616.16;;;0.15;57.67
16094;BME280;8151;47.824;12.092;2023-04-05T06:18:22;96619.13;;;0.24;57.61
16094;BME280;8151;47.824;12.092;2023-04-05T06:20:50;96620.31;;;0.32;57.36
16094;BME280;8151;47.824;12.092;2023-04-05T06:23:20;96617.69;;;0.32;57.62
16094;BME280;8151;47.824;12.092;2023-04-05T06:25:48;96621.44;;;0.28;57.65
16094;BME280;8151;47.824;12.092;2023-04-05T06:28:17;96629.19;;;0.15;58.24
16094;BME280;8151;47.824;12.092;2023-04-05T06:30:45;96619.31;;;0.21;58.30
16094;BME280;8151;47.824;12.092;2023-04-05T06:33:14;96622.47;;;0.26;58.54
16094;BME280;8151;47.824;12.092;2023-04-05T06:35:42;96621.69;;;0.38;58.25
16094;BME280;8151;47.824;12.092;2023-04-05T06:38:11;96612.94;;;0.39;58.31
16094;BME280;8151;47.824;12.092;2023-04-05T06:40:41;96616.63;;;0.49;58.53
16094;BME280;8151;47.824;12.092;2023-04-05T06:43:09;96617.78;;;0.58;58.23
16094;BME280;8151;47.824;12.092;2023-04-05T06:45:38;96610.19;;;0.68;58.43
16094;BME280;8151;47.824;12.092;2023-04-05T06:48:07;96610.91;;;0.70;58.12
16094;BME280;8151;47.824;12.092;2023-04-05T06:50:35;96618.44;;;0.74;58.57
16094;BME280;8151;47.824;12.092;2023-04-05T06:53:04;96620.75;;;0.79;58.31
16094;BME280;8151;47.824;12.092;2023-04-05T06:55:32;96619.94;;;0.91;58.65
16094;BME280;8151;47.824;12.092;2023-04-05T06:58:02;96609.41;;;1.06;58.46
16094;BME280;8151;47.824;12.092;2023-04-05T07:00:30;96611.09;;;1.20;58.18
16094;BME280;8151;47.824;12.092;2023-04-05T07:02:59;96611.94;;;1.33;58.50
16094;BME280;8151;47.824;12.092;2023-04-05T07:05:27;96604.63;;;1.38;58.52
16094;BME280;8151;47.824;12.092;2023-04-05T07:07:56;96610.78;;;1.37;58.37
16094;BME280;8151;47.824;12.092;2023-04-05T07:10:25;96609.13;;;1.36;58.84
16094;BME280;8151;47.824;12.092;2023-04-05T07:12:55;96609.00;;;1.37;58.57
16094;BME280;8151;47.824;12.092;2023-04-05T07:15:27;96609.50;;;1.43;58.74
16094;BME280;8151;47.824;12.092;2023-04-05T07:17:56;96614.31;;;1.49;58.66
16094;BME280;8151;47.824;12.092;2023-04-05T07:20:26;96609.63;;;1.54;58.87
16094;BME280;8151;47.824;12.092;2023-04-05T07:22:54;96613.34;;;1.63;58.48
16094;BME280;8151;47.824;12.092;2023-04-05T07:25:25;96611.06;;;1.71;58.40
16094;BME280;8151;47.824;12.092;2023-04-05T07:27:55;96618.13;;;1.82;58.47
16094;BME280;8151;47.824;12.092;2023-04-05T07:30:26;96611.63;;;1.87;58.58
16094;BME280;8151;47.824;12.092;2023-04-05T07:32:55;96604.44;;;1.91;58.46
16094;BME280;8151;47.824;12.092;2023-04-05T07:35:23;96607.56;;;1.96;58.66
16094;BME280;8151;47.824;12.092;2023-04-05T07:37:53;96606.56;;;2.10;58.47
16094;BME280;8151;47.824;12.092;2023-04-05T07:40:22;96605.47;;;2.25;58.34
16094;BME280;8151;47.824;12.092;2023-04-05T07:42:50;96603.63;;;2.39;58.00
16094;BME280;8151;47.824;12.092;2023-04-05T07:45:19;96602.84;;;2.49;58.08
16094;BME280;8151;47.824;12.092;2023-04-05T07:47:48;96598.13;;;2.54;58.14
16094;BME280;8151;47.824;12.092;2023-04-05T07:50:17;96600.66;;;2.67;57.87
16094;BME280;8151;47.824;12.092;2023-04-05T07:52:46;96600.78;;;2.77;57.96
16094;BME280;8151;47.824;12.092;2023-04-05T07:55:14;96599.91;;;2.89;57.76
16094;BME280;8151;47.824;12.092;2023-04-05T07:57:43;96598.25;;;3.00;57.75
16094;BME280;8151;47.824;12.092;2023-04-05T08:00:12;96603.00;;;3.06;57.79
16094;BME280;8151;47.824;12.092;2023-04-05T08:02:43;96600.78;;;3.12;57.78
16094;BME280;8151;47.824;12.092;2023-04-05T08:05:13;96600.19;;;3.20;57.56
16094;BME280;8151;47.824;12.092;2023-04-05T08:07:42;96601.97;;;3.31;57.54
16094;BME280;8151;47.824;12.092;2023-04-05T08:10:10;96603.19;;;3.38;57.61
16094;BME280;8151;47.824;12.092;2023-04-05T08:12:38;96607.59;;;3.38;57.76
16094;BME280;8151;47.824;12.092;2023-04-05T08:15:08;96609.59;;;3.34;57.78
16094;BME280;8151;47.824;12.092;2023-04-05T08:17:36;96609.63;;;3.45;57.50
16094;BME280;8151;47.824;12.092;2023-04-05T08:20:06;96609.59;;;3.57;57.52
16094;BME280;8151;47.824;12.092;2023-04-05T08:22:36;96609.00;;;3.64;57.48
16094;BME280;8151;47.824;12.092;2023-04-05T08:25:05;96609.97;;;3.74;57.39
16094;BME280;8151;47.824;12.092;2023-04-05T08:27:34;96612.59;;;3.86;57.26
16094;BME280;8151;47.824;12.092;2023-04-05T08:30:03;96610.91;;;3.96;57.34
16094;BME280;8151;47.824;12.092;2023-04-05T08:32:38;96609.09;;;4.08;57.26
16094;BME280;8151;47.824;12.092;2023-04-05T08:35:07;96603.25;;;4.16;56.97
16094;BME280;8151;47.824;12.092;2023-04-05T08:37:37;96608.13;;;4.20;56.98
16094;BME280;8151;47.824;12.092;2023-04-05T08:40:07;96611.09;;;4.16;57.79
16094;BME280;8151;47.824;12.092;2023-04-05T08:42:40;96608.22;;;4.19;57.42
16094;BME280;8151;47.824;12.092;2023-04-05T08:45:09;96609.88;;;4.31;57.53
16094;BME280;8151;47.824;12.092;2023-04-05T08:47:41;96604.63;;;4.42;57.56
16094;BME280;8151;47.824;12.092;2023-04-05T08:50:10;96612.88;;;4.59;56.99
16094;BME280;8151;47.824;12.092;2023-04-05T08:52:51;96607.22;;;4.74;57.30
16094;BME280;8151;47.824;12.092;2023-04-05T08:55:19;96607.88;;;4.88;56.67
16094;BME280;8151;47.824;12.092;2023-04-05T08:57:49;96602.13;;;4.94;57.10
16094;BME280;8151;47.824;12.092;2023-04-05T09:00:20;96600.47;;;4.93;56.94
16094;BME280;8151;47.824;12.092;2023-04-05T09:02:52;96589.94;;;5.04;57.41
16094;BME280;8151;47.824;12.092;2023-04-05T09:05:23;96598.72;;;5.24;57.06
16094;BME280;8151;47.824;12.092;2023-04-05T09:07:56;96602.81;;;5.38;57.52
16094;BME280;8151;47.824;12.092;2023-04-05T09:10:26;96591.78;;;5.44;56.65
16094;BME280;8151;47.824;12.092;2023-04-05T09:12:59;96593.50;;;5.55;56.47
16094;BME280;8151;47.824;12.092;2023-04-05T09:15:29;96594.91;;;5.59;56.18
16094;BME280;8151;47.824;12.092;2023-04-05T09:17:58;96585.81;;;5.63;56.58
16094;BME280;8151;47.824;12.092;2023-04-05T09:20:29;96589.16;;;5.75;56.24
16094;BME280;8151;47.824;12.092;2023-04-05T09:22:59;96592.22;;;5.80;56.28
16094;BME280;8151;47.824;12.092;2023-04-05T09:25:35;96587.97;;;5.89;55.99
16094;BME280;8151;47.824;12.092;2023-04-05T09:28:06;96582.94;;;6.07;56.28
16094;BME280;8151;47.824;12.092;2023-04-05T09:30:35;96584.06;;;6.24;55.97
16094;BME280;8151;47.824;12.092;2023-04-05T09:33:06;96580.22;;;6.38;55.17
16094;BME280;8151;47.824;12.092;2023-04-05T09:35:36;96583.56;;;6.40;55.10
16094;BME280;8151;47.824;12.092;2023-04-05T09:38:06;96576.50;;;6.40;54.91
16094;BME280;8151;47.824;12.092;2023-04-05T09:40:42;96574.00;;;6.39;54.88
16094;BME280;8151;47.824;12.092;2023-04-05T09:43:13;96578.69;;;6.35;54.91
16094;BME280;8151;47.824;12.092;2023-04-05T09:45:42;96574.94;;;6.38;54.87
16094;BME280;8151;47.824;12.092;2023-04-05T09:48:12;96574.69;;;6.50;53.99
16094;BME280;8151;47.824;12.092;2023-04-05T09:50:40;96572.88;;;6.70;53.43
16094;BME280;8151;47.824;12.092;2023-04-05T09:53:11;96570.69;;;6.85;53.05
16094;BME280;8151;47.824;12.092;2023-04-05T09:55:42;96581.03;;;7.06;52.80
16094;BME280;8151;47.824;12.092;2023-04-05T09:58:11;96572.00;;;7.19;52.42
16094;BME280;8151;47.824;12.092;2023-04-05T10:00:48;96575.16;;;7.32;51.80
16094;BME280;8151;47.824;12.092;2023-04-05T10:03:45;96579.00;;;7.47;51.79
16094;BME280;8151;47.824;12.092;2023-04-05T10:06:15;96572.19;;;7.55;51.64
16094;BME280;8151;47.824;12.092;2023-04-05T10:08:46;96571.03;;;7.67;51.28
16094;BME280;8151;47.824;12.092;2023-04-05T10:11:17;96564.16;;;7.84;50.76
16094;BME280;8151;47.824;12.092;2023-04-05T10:13:45;96570.06;;;7.96;50.73
16094;BME280;8151;47.824;12.092;2023-04-05T10:16:20;96565.34;;;7.99;50.42
16094;BME280;8151;47.824;12.092;2023-04-05T10:18:55;96565.72;;;8.04;50.22
16094;BME280;8151;47.824;12.092;2023-04-05T10:21:28;96556.16;;;8.03;49.78
16094;BME280;8151;47.824;12.092;2023-04-05T10:24:04;96553.38;;;8.05;49.76
16094;BME280;8151;47.824;12.092;2023-04-05T10:26:41;96550.22;;;8.19;49.76
16094;BME280;8151;47.824;12.092;2023-04-05T10:29:19;96552.81;;;8.29;49.46
16094;BME280;8151;47.824;12.092;2023-04-05T10:31:58;96548.69;;;8.44;48.99
16094;BME280;8151;47.824;12.092;2023-04-05T10:34:41;96541.19;;;8.50;48.58
16094;BME280;8151;47.824;12.092;2023-04-05T10:37:22;96548.03;;;8.42;48.98
16094;BME280;8151;47.824;12.092;2023-04-05T10:39:56;96543.47;;;8.35;48.81
16094;BME280;8151;47.824;12.092;2023-04-05T10:42:35;96538.84;;;8.46;48.75
16094;BME280;8151;47.824;12.092;2023-04-05T10:45:06;96539.22;;;8.52;48.60
16094;BME280;8151;47.824;12.092;2023-04-05T10:47:46;96532.72;;;8.64;48.13
16094;BME280;8151;47.824;12.092;2023-04-05T10:50:21;96525.47;;;8.66;47.83
16094;BME280;8151;47.824;12.092;2023-04-05T10:52:50;96530.63;;;8.67;48.38
16094;BME280;8151;47.824;12.092;2023-04-05T10:55:20;96531.97;;;8.54;48.39
16094;BME280;8151;47.824;12.092;2023-04-05T10:57:49;96524.69;;;8.47;48.09
16094;BME280;8151;47.824;12.092;2023-04-05T11:00:18;96518.19;;;8.60;48.23
16094;BME280;8151;47.824;12.092;2023-04-05T11:02:48;96523.13;;;8.81;47.27
16094;BME280;8151;47.824;12.092;2023-04-05T11:05:31;96511.06;;;8.96;46.63
16094;BME280;8151;47.824;12.092;2023-04-05T11:08:05;96509.22;;;8.97;46.90
16094;BME280;8151;47.824;12.092;2023-04-05T11:10:37;96513.25;;;9.09;46.20
16094;BME280;8151;47.824;12.092;2023-04-05T11:13:09;96508.06;;;9.17;46.49
16094;BME280;8151;47.824;12.092;2023-04-05T11:15:39;96516.78;;;9.18;46.42
16094;BME280;8151;47.824;12.092;2023-04-05T11:18:09;96507.53;;;9.14;46.00
16094;BME280;8151;47.824;12.092;2023-04-05T11:20:40;96505.66;;;9.06;45.77
16094;BME280;8151;47.824;12.092;2023-04-05T11:23:09;96500.41;;;9.06;46.28
16094;BME280;8151;47.824;12.092;2023-04-05T11:25:40;96503.59;;;9.18;45.99
16094;BME280;8151;47.824;12.092;2023-04-05T11:28:28;96491.25;;;9.26;44.75
16094;BME280;8151;47.824;12.092;2023-04-05T11:31:11;96501.50;;;9.30;45.03
16094;BME280;8151;47.824;12.092;2023-04-05T11:33:56;96492.31;;;9.42;45.14
16094;BME280;8151;47.824;12.092;2023-04-05T11:36:37;96490.13;;;9.63;44.64
16094;BME280;8151;47.824;12.092;2023-04-05T11:39:26;96494.81;;;9.78;44.56
16094;BME280;8151;47.824;12.092;2023-04-05T11:41:58;96491.22;;;9.87;45.05
16094;BME280;8151;47.824;12.092;2023-04-05T11:44:29;96486.44;;;9.91;44.61
16094;BME280;8151;47.824;12.092;2023-04-05T11:47:06;96490.72;;;9.92;44.22
16094;BME280;8151;47.824;12.092;2023-04-05T11:49:35;96484.59;;;9.91;44.44
16094;BME280;8151;47.824;12.092;2023-04-05T11:52:11;96484.78;;;9.98;43.43
16094;BME280;8151;47.824;12.092;2023-04-05T11:54:40;96486.97;;;10.11;43.66
16094;BME280;8151;47.824;12.092;2023-04-05T11:57:18;96473.59;;;10.29;43.44
16094;BME280;8151;47.824;12.092;2023-04-05T11:59:49;96475.81;;;10.41;43.13
16094;BME280;8151;47.824;12.092;2023-04-05T12:02:19;96471.84;;;10.46;43.13
16094;BME280;8151;47.824;12.092;2023-04-05T12:04:53;96471.16;;;10.52;43.07
16094;BME280;8151;47.824;12.092;2023-04-05T12:07:25;96472.47;;;10.64;42.53
16094;BME280;8151;47.824;12.092;2023-04-05T12:10:02;96469.03;;;10.80;42.70
16094;BME280;8151;47.824;12.092;2023-04-05T12:12:37;96473.28;;;10.89;42.57
16094;BME280;8151;47.824;12.092;2023-04-05T12:15:07;96473.31;;;10.97;42.29
16094;BME280;8151;47.824;12.092;2023-04-05T12:17:44;96462.03;;;11.03;41.50
16094;BME280;8151;47.824;12.092;2023-04-05T12:20:16;96465.84;;;10.93;41.72
16094;BME280;8151;47.824;12.092;2023-04-05T12:22:46;96456.91;;;10.86;41.88
16094;BME280;8151;47.824;12.092;2023-04-05T12:25:16;96460.88;;;10.81;41.69
16094;BME280;8151;47.824;12.092;2023-04-05T12:27:47;96461.53;;;10.83;41.71
16094;BME280;8151;47.824;12.092;2023-04-05T12:30:16;96462.56;;;10.82;41.90
16094;BME280;8151;47.824;12.092;2023-04-05T12:32:47;96452.66;;;10.76;41.56
16094;BME280;8151;47.824;12.092;2023-04-05T12:35:19;96456.25;;;10.83;41.74
16094;BME280;8151;47.824;12.092;2023-04-05T12:37:49;96460.56;;;10.84;41.54
16094;BME280;8151;47.824;12.092;2023-04-05T12:40:21;96458.59;;;10.78;41.64
16094;BME280;8151;47.824;12.092;2023-04-05T12:42:52;96459.25;;;10.80;41.97
16094;BME280;8151;47.824;12.092;2023-04-05T12:45:22;96449.63;;;10.96;41.56
16094;BME280;8151;47.824;12.092;2023-04-05T12:47:52;96449.09;;;11.17;41.21
16094;BME280;8151;47.824;12.092;2023-04-05T12:50:27;96445.69;;;11.39;40.37
16094;BME280;8151;47.824;12.092;2023-04-05T12:52:57;96440.38;;;11.48;40.83
16094;BME280;8151;47.824;12.092;2023-04-05T12:55:27;96448.13;;;11.49;40.40
16094;BME280;8151;47.824;12.092;2023-04-05T12:57:59;96441.50;;;11.53;40.62
16094;BME280;8151;47.824;12.092;2023-04-05T13:00:28;96443.66;;;11.58;40.68
16094;BME280;8151;47.824;12.092;2023-04-05T13:02:59;96436.53;;;11.58;40.41
16094;BME280;8151;47.824;12.092;2023-04-05T13:05:28;96442.16;;;11.55;40.43
16094;BME280;8151;47.824;12.092;2023-04-05T13:07:57;96437.94;;;11.30;40.34
16094;BME280;8151;47.824;12.092;2023-04-05T13:10:36;96435.00;;;11.16;40.85
16094;BME280;8151;47.824;12.092;2023-04-05T13:13:06;96430.56;;;11.09;40.09
16094;BME280;8151;47.824;12.092;2023-04-05T13:15:34;96435.41;;;11.05;40.01
16094;BME280;8151;47.824;12.092;2023-04-05T13:18:02;96428.25;;;11.14;39.98
16094;BME280;8151;47.824;12.092;2023-04-05T13:20:32;96433.66;;;11.29;39.53
16094;BME280;8151;47.824;12.092;2023-04-05T13:23:01;96432.97;;;11.35;39.85
16094;BME280;8151;47.824;12.092;2023-04-05T13:25:30;96426.38;;;11.31;39.49
16094;BME280;8151;47.824;12.092;2023-04-05T13:27:58;96426.44;;;11.54;39.58